Time;durP1;ratioP1;P1;durP2;ratioP2;P2;SDS_P1;SDS_P2;PMS_P1;PMS_P2;Temp;Humidity;BMP_temperature;BMP_pressure;BME280_temperature;BME280_humidity;BME280_pressure;Samples;Min_cycle;Max_cycle;Signal;HPM_P1;HPM_P2
2022/06/30 00:00:10;;;;;;;3.13;2.92;;;;;;;22.55;64.28;98106.03;5032349;28;20522;-58
2022/06/30 00:02:36;;;;;;;8.95;3.15;;;;;;;22.59;64.73;98099.34;5031831;28;20215;-58
2022/06/30 00:05:01;;;;;;;3.85;2.97;;;;;;;22.60;64.29;98104.44;5032241;28;20208;-58
2022/06/30 00:07:27;;;;;;;6.68;3.03;;;;;;;22.53;64.74;98097.47;5032008;28;20200;-58
2022/06/30 00:09:52;;;;;;;3.55;3.25;;;;;;;22.45;64.76;98100.22;5031972;28;20283;-58
2022/06/30 00:12:17;;;;;;;3.88;3.13;;;;;;;22.40;65.19;98092.03;5032232;28;20180;-58
2022/06/30 00:14:43;;;;;;;7.28;2.92;;;;;;;22.41;65.12;98098.94;5033351;28;20184;-58
2022/06/30 00:17:09;;;;;;;3.42;3.22;;;;;;;22.33;65.58;98089.31;5038486;28;20256;-58
2022/06/30 00:19:35;;;;;;;4.35;3.00;;;;;;;22.33;65.37;98114.88;5038559;28;20174;-58
2022/06/30 00:22:01;;;;;;;3.83;2.50;;;;;;;22.27;65.48;98113.78;5038747;28;20224;-58
2022/06/30 00:24:26;;;;;;;2.78;2.60;;;;;;;22.42;64.13;98097.91;5038743;28;20181;-58
2022/06/30 00:26:52;;;;;;;5.03;3.17;;;;;;;22.53;63.81;98097.47;5038499;28;20649;-58
2022/06/30 00:29:17;;;;;;;3.03;2.83;;;;;;;22.68;63.04;98106.16;5038486;28;20247;-58
2022/06/30 00:31:42;;;;;;;4.25;2.90;;;;;;;22.76;62.84;98098.09;5038992;28;20204;-58
2022/06/30 00:34:08;;;;;;;3.50;2.88;;;;;;;22.76;62.76;98109.47;5038368;28;20536;-58
2022/06/30 00:36:33;;;;;;;4.18;2.75;;;;;;;22.67;63.74;98092.13;5037089;28;20181;-58
2022/06/30 00:38:59;;;;;;;7.82;3.00;;;;;;;22.59;63.55;98096.72;5038642;28;20184;-58
2022/06/30 00:41:24;;;;;;;9.85;3.03;;;;;;;22.60;64.03;98095.75;5038239;28;20201;-58
2022/06/30 00:43:51;;;;;;;3.47;3.20;;;;;;;22.47;64.61;98092.94;5038565;28;20184;-58
2022/06/30 00:46:17;;;;;;;4.80;2.67;;;;;;;22.36;64.86;98094.22;5038570;28;20177;-58
2022/06/30 00:48:43;;;;;;;3.13;2.72;;;;;;;22.26;65.65;98093.69;5038311;28;20647;-58
2022/06/30 00:51:09;;;;;;;3.60;2.92;;;;;;;22.16;66.48;98087.09;5038282;28;20177;-58
2022/06/30 00:53:36;;;;;;;6.28;2.78;;;;;;;22.14;66.40;98099.66;5038231;28;20174;-58
2022/06/30 00:56:06;;;;;;;3.28;2.88;;;;;;;22.02;66.82;98087.94;5038207;28;20209;-58
2022/06/30 00:58:40;;;;;;;4.65;3.20;;;;;;;21.99;66.82;98083.03;5038191;28;20316;-58
2022/06/30 01:01:08;;;;;;;5.20;3.20;;;;;;;21.97;67.42;98074.50;5038203;28;20237;-58
2022/06/30 01:03:34;;;;;;;2.88;2.67;;;;;;;21.97;67.34;98087.69;5038419;28;20281;-58
2022/06/30 01:06:02;;;;;;;3.75;3.30;;;;;;;21.95;67.49;98077.31;5036842;28;20202;-58
2022/06/30 01:08:32;;;;;;;3.50;3.00;;;;;;;22.02;67.07;98077.41;5038083;28;20177;-58
2022/06/30 01:13:42;;;;;;;5.05;3.03;;;;;;;21.97;67.52;98074.50;5038885;28;20169;-58
2022/06/30 01:16:08;;;;;;;4.30;3.13;;;;;;;21.96;66.97;98065.78;5038316;28;20174;-58
2022/06/30 01:18:34;;;;;;;6.35;3.45;;;;;;;21.99;67.11;98075.13;5038299;28;20247;-58
2022/06/30 01:21:00;;;;;;;3.72;2.88;;;;;;;22.07;67.16;98075.00;5038161;28;20206;-58
2022/06/30 01:23:25;;;;;;;5.57;3.28;;;;;;;22.10;66.97;98079.94;5037949;28;20208;-58
2022/06/30 01:25:51;;;;;;;3.30;3.00;;;;;;;22.16;66.66;98079.19;5038068;28;20209;-58
2022/06/30 01:28:17;;;;;;;5.95;3.13;;;;;;;22.11;66.95;98089.47;5033955;28;20181;-58
2022/06/30 01:30:43;;;;;;;3.10;2.65;;;;;;;21.98;67.30;98081.41;5034801;28;20174;-58
2022/06/30 01:33:08;;;;;;;4.88;2.85;;;;;;;21.97;67.68;98079.78;5034750;28;20619;-58
2022/06/30 01:35:34;;;;;;;5.97;3.10;;;;;;;21.98;67.38;98076.13;5034992;28;20174;-58
2022/06/30 01:38:00;;;;;;;4.40;3.00;;;;;;;22.04;67.05;98081.47;5034905;28;20221;-58
2022/06/30 01:40:28;;;;;;;6.43;3.00;;;;;;;22.02;66.84;98080.84;5034774;28;20205;-58
2022/06/30 01:42:54;;;;;;;7.30;3.10;;;;;;;21.95;67.20;98081.75;5035359;28;20238;-58
2022/06/30 01:45:21;;;;;;;3.72;3.42;;;;;;;21.87;67.33;98079.22;5034513;28;20178;-58
2022/06/30 01:47:47;;;;;;;8.93;2.88;;;;;;;21.75;68.23;98080.69;5034498;28;20262;-58
2022/06/30 01:50:15;;;;;;;3.17;2.88;;;;;;;21.72;68.10;98081.88;5034713;28;20205;-58
2022/06/30 01:52:41;;;;;;;2.83;2.63;;;;;;;21.76;67.66;98075.25;5034590;28;20554;-58
2022/06/30 01:55:07;;;;;;;3.38;3.15;;;;;;;21.78;67.83;98086.41;5034329;28;20177;-58
2022/06/30 01:57:34;;;;;;;4.07;3.13;;;;;;;21.79;67.45;98079.34;5034331;28;20260;-58
2022/06/30 01:59:59;;;;;;;5.43;2.92;;;;;;;21.71;68.00;98079.41;5034214;28;20174;-58
2022/06/30 02:02:24;;;;;;;4.75;3.35;;;;;;;21.74;67.75;98073.81;5033927;28;20228;-58
2022/06/30 02:04:53;;;;;;;3.15;2.83;;;;;;;21.82;67.70;98071.06;5034105;28;20579;-58
2022/06/30 02:07:21;;;;;;;3.83;2.85;;;;;;;21.88;67.45;98080.88;5034344;28;20189;-58
2022/06/30 02:09:50;;;;;;;6.90;3.20;;;;;;;21.81;67.65;98069.44;5034326;28;20213;-58
2022/06/30 02:15:01;;;;;;;5.45;3.10;;;;;;;21.79;67.68;98079.34;5034577;28;20219;-58
2022/06/30 02:17:27;;;;;;;6.97;3.25;;;;;;;21.83;67.27;98084.06;5034173;28;20182;-58
2022/06/30 02:19:53;;;;;;;4.68;3.05;;;;;;;21.80;67.89;98078.34;5034192;28;20181;-58
2022/06/30 02:22:18;;;;;;;3.33;3.03;;;;;;;21.76;67.55;98084.97;5034010;28;20208;-58
2022/06/30 02:24:44;;;;;;;3.85;3.45;;;;;;;21.77;67.86;98083.97;5034396;28;20181;-58
2022/06/30 02:27:09;;;;;;;4.63;3.00;;;;;;;21.69;68.15;98081.44;5034030;28;20173;-58
2022/06/30 02:29:35;;;;;;;4.07;2.92;;;;;;;21.68;67.93;98070.06;5033833;28;20563;-58
2022/06/30 02:32:01;;;;;;;4.43;2.90;;;;;;;21.57;68.72;98083.66;5033684;28;20173;-58
2022/06/30 02:34:28;;;;;;;5.22;3.28;;;;;;;21.50;69.09;98082.75;5033599;28;20276;-58
2022/06/30 02:36:54;;;;;;;5.28;2.60;;;;;;;21.46;68.92;98081.50;5033841;28;20178;-58
2022/06/30 02:39:19;;;;;;;3.72;3.15;;;;;;;21.45;68.94;98079.03;5033611;28;20193;-58
2022/06/30 02:41:45;;;;;;;4.03;2.92;;;;;;;21.45;69.14;98081.69;5033324;28;20694;-58
2022/06/30 02:44:10;;;;;;;3.70;3.00;;;;;;;21.46;69.18;98076.22;5033400;28;20181;-58
2022/06/30 02:46:35;;;;;;;5.07;3.13;;;;;;;21.52;69.03;98087.84;5033650;28;20185;-58
2022/06/30 02:49:01;;;;;;;3.10;2.90;;;;;;;21.50;68.80;98087.22;5033320;28;20174;-58
2022/06/30 02:51:26;;;;;;;4.78;2.97;;;;;;;21.38;69.71;98088.66;5033293;28;20224;-58
2022/06/30 02:53:51;;;;;;;5.80;3.15;;;;;;;21.34;69.50;98087.38;5033306;28;20170;-58
2022/06/30 02:56:17;;;;;;;8.95;2.88;;;;;;;21.38;70.06;98101.81;5033676;28;20184;-58
2022/06/30 02:58:43;;;;;;;3.60;2.72;;;;;;;21.26;69.65;98075.09;5033383;28;20657;-58
2022/06/30 03:01:08;;;;;;;4.85;2.88;;;;;;;21.32;69.85;98100.72;5032765;28;20225;-58
2022/06/30 03:03:33;;;;;;;6.78;3.35;;;;;;;21.33;70.08;98118.13;5033035;28;20177;-58
2022/06/30 03:05:59;;;;;;;5.53;3.13;;;;;;;21.31;70.12;98114.03;5033137;28;20173;-58
2022/06/30 03:08:25;;;;;;;3.75;3.40;;;;;;;21.35;69.66;98110.06;5032955;28;20174;-58
2022/06/30 03:10:50;;;;;;;3.50;3.20;;;;;;;21.28;70.14;98117.06;5032872;28;20180;-58
2022/06/30 03:13:16;;;;;;;5.50;3.15;;;;;;;21.17;70.81;98109.59;5033184;28;20257;-58
2022/06/30 03:15:42;;;;;;;3.10;2.83;;;;;;;21.17;70.45;98106.94;5033387;28;20232;-58
2022/06/30 03:18:07;;;;;;;6.95;3.30;;;;;;;21.24;70.58;98102.59;5032771;28;20185;-58
2022/06/30 03:20:33;;;;;;;5.13;2.70;;;;;;;21.23;70.70;98100.97;5032565;28;20178;-58
2022/06/30 03:22:58;;;;;;;4.82;3.05;;;;;;;21.22;71.05;98099.34;5032950;28;20177;-58
2022/06/30 03:25:24;;;;;;;5.35;3.20;;;;;;;21.24;70.95;98113.13;5032902;28;20173;-59
2022/06/30 03:27:49;;;;;;;4.03;3.60;;;;;;;21.13;71.17;98105.66;5032851;28;20228;-58
2022/06/30 03:30:14;;;;;;;3.55;2.75;;;;;;;21.10;71.20;98100.78;5032496;28;20200;-58
2022/06/30 03:32:40;;;;;;;3.80;3.35;;;;;;;21.15;71.58;98108.94;5032804;28;20174;-58
2022/06/30 03:35:06;;;;;;;4.28;3.70;;;;;;;21.13;71.44;98097.78;5032707;28;20173;-58
2022/06/30 03:37:31;;;;;;;4.50;3.15;;;;;;;21.12;71.97;98104.03;5032689;28;20587;-58
2022/06/30 03:39:57;;;;;;;3.42;2.92;;;;;;;21.21;71.12;98103.78;5032413;28;20686;-58
2022/06/30 03:42:23;;;;;;;3.78;3.47;;;;;;;21.20;71.08;98109.22;5032250;28;20202;-58
2022/06/30 03:44:49;;;;;;;5.35;3.38;;;;;;;21.25;71.23;98105.06;5032566;28;20181;-58
2022/06/30 03:47:14;;;;;;;5.50;3.13;;;;;;;21.39;70.71;98100.81;5032309;28;20239;-58
2022/06/30 03:49:40;;;;;;;3.20;3.00;;;;;;;21.40;71.11;98105.09;5031959;28;20197;-58
2022/06/30 03:52:05;;;;;;;4.20;3.17;;;;;;;21.39;70.90;98095.56;5032488;28;20178;-58
2022/06/30 03:54:31;;;;;;;3.15;2.95;;;;;;;21.56;70.49;98111.00;5032233;28;20587;-58
2022/06/30 03:56:56;;;;;;;3.70;3.35;;;;;;;21.59;70.28;98112.44;5032469;28;20638;-58
2022/06/30 03:59:22;;;;;;;3.60;3.28;;;;;;;21.54;70.69;98114.78;5032083;28;20658;-58
2022/06/30 04:01:47;;;;;;;3.95;2.78;;;;;;;21.59;70.64;98117.72;5031867;28;20221;-58
2022/06/30 04:04:13;;;;;;;5.03;3.10;;;;;;;21.55;70.30;98090.09;5032334;28;20181;-58
2022/06/30 04:06:38;;;;;;;3.42;3.13;;;;;;;21.77;70.16;98126.09;5030732;28;20606;-58
2022/06/30 04:09:04;;;;;;;3.78;3.13;;;;;;;21.77;69.80;98128.75;5032040;28;20657;-58
2022/06/30 04:11:29;;;;;;;3.58;3.35;;;;;;;21.84;69.70;98127.00;5033079;28;20174;-58
2022/06/30 04:13:55;;;;;;;4.43;3.60;;;;;;;21.79;69.99;98124.13;5031924;28;20541;-58
2022/06/30 04:16:20;;;;;;;4.28;3.20;;;;;;;21.81;69.81;98122.13;5031969;28;20178;-58
2022/06/30 04:18:45;;;;;;;6.82;3.42;;;;;;;21.76;69.95;98133.22;5032153;28;20174;-58
2022/06/30 04:21:13;;;;;;;3.85;3.10;;;;;;;21.98;69.24;98140.16;5032416;28;20197;-58
2022/06/30 04:23:38;;;;;;;4.25;3.20;;;;;;;22.01;69.29;98149.53;5032114;28;20185;-58
2022/06/30 04:26:04;;;;;;;5.07;3.50;;;;;;;21.99;68.15;98149.75;5030661;28;20649;-58
2022/06/30 04:28:29;;;;;;;3.40;3.05;;;;;;;21.82;68.95;98160.63;5032085;28;20260;-58
2022/06/30 04:33:38;;;;;;;3.45;2.85;;;;;;;21.67;69.64;98173.78;5032367;28;20169;-58
2022/06/30 04:36:04;;;;;;;4.82;3.10;;;;;;;21.67;69.71;98142.19;5032087;28;20584;-58
2022/06/30 04:38:30;;;;;;;4.72;2.95;;;;;;;21.84;69.56;98169.16;5031805;28;20182;-58
2022/06/30 04:43:39;;;;;;;6.40;3.50;;;;;;;21.96;70.14;98149.28;5032284;28;20164;-58
2022/06/30 04:46:04;;;;;;;3.85;3.45;;;;;;;22.10;70.24;98145.81;5031938;28;20249;-58
2022/06/30 04:48:30;;;;;;;3.15;2.95;;;;;;;22.24;68.84;98144.97;5031719;28;20173;-59
2022/06/30 04:50:55;;;;;;;4.45;3.55;;;;;;;22.16;69.38;98150.34;5031938;28;20170;-58
2022/06/30 04:53:21;;;;;;;10.80;3.33;;;;;;;22.29;69.25;98147.88;5032171;28;20177;-58
2022/06/30 04:55:46;;;;;;;3.78;3.08;;;;;;;22.40;68.47;98152.66;5031609;28;20170;-58
2022/06/30 04:58:12;;;;;;;3.58;3.22;;;;;;;22.36;68.51;98146.13;5031636;28;20176;-58
2022/06/30 05:00:37;;;;;;;3.42;3.17;;;;;;;22.45;68.74;98158.25;5031246;28;20577;-58
2022/06/30 05:03:03;;;;;;;4.05;3.40;;;;;;;22.61;68.11;98164.09;5034337;28;20189;-58
2022/06/30 05:05:28;;;;;;;3.92;2.95;;;;;;;22.69;68.14;98147.34;5035452;28;20178;-58
2022/06/30 05:07:54;;;;;;;3.85;3.55;;;;;;;22.70;68.25;98148.97;5035296;28;20162;-58
2022/06/30 05:10:19;;;;;;;3.63;3.22;;;;;;;22.85;67.31;98149.75;5035250;28;20640;-58
2022/06/30 05:12:45;;;;;;;4.20;3.25;;;;;;;22.89;66.83;98151.03;5035743;28;20174;-58
2022/06/30 05:15:10;;;;;;;4.85;3.47;;;;;;;22.84;66.80;98153.41;5035661;28;20170;-58
2022/06/30 05:17:36;;;;;;;3.17;2.95;;;;;;;22.96;66.77;98157.16;5035335;28;20181;-59
2022/06/30 05:20:02;;;;;;;5.80;3.40;;;;;;;22.89;66.71;98136.00;5035251;28;20647;-58
2022/06/30 05:22:28;;;;;;;3.25;2.95;;;;;;;23.04;66.48;98149.94;5035143;28;20197;-58
2022/06/30 05:27:38;;;;;;;3.65;3.33;;;;;;;23.24;65.78;98160.72;5035180;28;20185;-58
2022/06/30 05:30:04;;;;;;;3.25;3.00;;;;;;;23.40;65.55;98157.78;5034605;28;20647;-58
2022/06/30 05:32:29;;;;;;;5.05;2.58;;;;;;;23.50;65.47;98166.19;5033382;28;20174;-58
2022/06/30 05:34:55;;;;;;;3.58;3.20;;;;;;;23.60;65.24;98159.56;5034771;28;20177;-58
2022/06/30 05:37:20;;;;;;;5.10;3.10;;;;;;;23.54;65.06;98160.31;5034715;28;20609;-58
2022/06/30 05:39:46;;;;;;;3.88;3.22;;;;;;;23.66;64.90;98171.19;5034664;28;20639;-58
2022/06/30 05:42:11;;;;;;;3.72;3.38;;;;;;;23.62;65.41;98170.78;5035045;28;20197;-58
2022/06/30 05:44:36;;;;;;;3.50;2.88;;;;;;;23.75;65.46;98169.00;5034551;28;20181;-58
2022/06/30 05:47:02;;;;;;;3.20;2.90;;;;;;;23.92;64.77;98173.00;5034550;28;20169;-58
2022/06/30 05:49:27;;;;;;;6.82;3.50;;;;;;;24.04;64.36;98166.16;5034757;28;20200;-58
2022/06/30 05:51:53;;;;;;;5.25;3.00;;;;;;;24.26;63.26;98178.28;5034745;28;20161;-59
2022/06/30 05:54:18;;;;;;;5.85;3.10;;;;;;;24.35;63.03;98179.75;5034374;28;20181;-58
2022/06/30 05:56:44;;;;;;;4.18;2.78;;;;;;;24.36;62.83;98170.81;5034672;28;20174;-59
2022/06/30 05:59:10;;;;;;;3.67;3.45;;;;;;;24.44;61.83;98172.47;5034273;28;20188;-58
2022/06/30 06:01:36;;;;;;;6.30;3.13;;;;;;;24.54;62.48;98179.03;5034318;28;20279;-58
2022/06/30 06:04:02;;;;;;;5.40;3.53;;;;;;;24.66;62.23;98177.47;5034262;28;20704;-58
2022/06/30 06:06:28;;;;;;;4.97;3.00;;;;;;;24.74;62.19;98179.91;5034199;28;20228;-58
2022/06/30 06:08:53;;;;;;;5.45;3.03;;;;;;;24.85;61.73;98178.53;5034209;28;20178;-59
2022/06/30 06:11:18;;;;;;;3.25;2.95;;;;;;;24.82;60.81;98174.47;5034405;28;20257;-58
2022/06/30 06:13:44;;;;;;;3.53;3.33;;;;;;;24.86;61.35;98183.66;5033772;28;20271;-58
2022/06/30 06:16:09;;;;;;;3.55;3.25;;;;;;;24.87;61.21;98192.38;5034286;28;20166;-58
2022/06/30 06:18:35;;;;;;;3.70;3.25;;;;;;;24.99;60.60;98188.97;5033914;28;20604;-58
2022/06/30 06:21:00;;;;;;;3.35;3.00;;;;;;;24.86;60.94;98178.34;5033860;28;20194;-58
2022/06/30 06:23:26;;;;;;;4.70;3.33;;;;;;;25.03;60.29;98190.16;5033860;28;20177;-58
2022/06/30 06:25:51;;;;;;;3.20;3.00;;;;;;;25.13;60.37;98193.25;5034133;28;20170;-58
2022/06/30 06:31:01;;;;;;;5.60;3.60;;;;;;;25.23;60.20;98208.75;5034004;28;20173;-59
2022/06/30 06:33:26;;;;;;;3.67;3.05;;;;;;;25.23;60.61;98201.63;5033953;28;20642;-59
2022/06/30 06:35:52;;;;;;;3.78;3.17;;;;;;;25.36;60.21;98195.56;5033645;28;20239;-59
2022/06/30 06:38:17;;;;;;;3.53;3.08;;;;;;;25.50;59.82;98195.38;5033549;28;20185;-59
2022/06/30 06:40:43;;;;;;;3.40;3.10;;;;;;;25.60;59.72;98193.09;5033417;28;20177;-59
2022/06/30 06:43:08;;;;;;;6.75;3.30;;;;;;;25.73;59.77;98193.09;5033460;28;20181;-59
2022/06/30 06:45:33;;;;;;;4.88;3.15;;;;;;;25.83;59.63;98198.78;5033722;28;20169;-59
2022/06/30 06:47:59;;;;;;;5.60;3.30;;;;;;;25.93;59.83;98193.91;5033328;28;20174;-59
2022/06/30 06:50:25;;;;;;;3.40;2.92;;;;;;;26.11;59.28;98196.72;5033564;28;20265;-59
2022/06/30 06:52:50;;;;;;;3.95;3.20;;;;;;;26.19;58.85;98188.53;5033245;28;20170;-58
2022/06/30 06:55:17;;;;;;;6.80;3.13;;;;;;;26.36;58.79;98199.53;5033271;28;20174;-59
2022/06/30 06:57:43;;;;;;;4.80;2.80;;;;;;;26.52;58.59;98199.03;5033265;28;20570;-59
2022/06/30 07:00:11;;;;;;;3.20;2.92;;;;;;;26.65;58.56;98194.53;5033121;28;20729;-58
2022/06/30 07:02:37;;;;;;;3.75;2.88;;;;;;;26.73;58.45;98185.50;5033270;28;20206;-58
2022/06/30 07:05:02;;;;;;;4.38;3.03;;;;;;;26.91;58.09;98197.06;5032990;28;20255;-59
2022/06/30 07:07:28;;;;;;;5.40;3.20;;;;;;;27.03;57.48;98190.03;5033646;28;20206;-59
2022/06/30 07:09:53;;;;;;;6.07;3.55;;;;;;;27.13;57.15;98192.22;5032970;28;20568;-59
2022/06/30 07:12:19;;;;;;;3.45;3.15;;;;;;;27.18;56.96;98185.25;5033197;28;20165;-59
2022/06/30 07:14:44;;;;;;;4.88;3.40;;;;;;;27.26;56.35;98192.97;5033121;28;20224;-59
2022/06/30 07:17:10;;;;;;;7.75;3.80;;;;;;;27.27;56.53;98172.50;5032808;28;20248;-58
2022/06/30 07:19:35;;;;;;;6.03;3.58;;;;;;;27.42;56.35;98181.81;5033105;28;20177;-59
2022/06/30 07:22:00;;;;;;;6.28;3.63;;;;;;;27.42;56.11;98181.81;5031407;28;20205;-59
2022/06/30 07:24:26;;;;;;;4.93;3.25;;;;;;;27.48;56.21;98180.13;5032232;28;20197;-59
2022/06/30 07:26:51;;;;;;;4.65;3.45;;;;;;;27.60;56.97;98176.56;5032941;28;20227;-59
2022/06/30 07:29:17;;;;;;;5.82;4.00;;;;;;;27.69;57.32;98172.56;5032579;28;20261;-59
2022/06/30 07:31:43;;;;;;;5.97;3.63;;;;;;;27.73;57.32;98168.47;5032882;28;20231;-59
2022/06/30 07:34:08;;;;;;;5.32;3.58;;;;;;;27.87;57.22;98169.19;5032556;28;20178;-58
2022/06/30 07:36:35;;;;;;;7.75;4.03;;;;;;;27.95;56.01;98172.38;5032474;28;20257;-59
2022/06/30 07:39:01;;;;;;;6.78;4.28;;;;;;;27.96;55.15;98176.66;5032729;28;20201;-59
2022/06/30 07:41:28;;;;;;;6.93;3.83;;;;;;;28.03;55.28;98174.72;5032273;28;20208;-59
2022/06/30 07:43:53;;;;;;;6.68;3.58;;;;;;;28.00;54.73;98177.03;5032358;28;20670;-58
2022/06/30 07:46:19;;;;;;;5.68;3.78;;;;;;;28.07;54.89;98183.06;5032378;28;20284;-58
2022/06/30 07:48:46;;;;;;;7.35;3.38;;;;;;;28.18;53.95;98185.84;5032314;28;20204;-59
2022/06/30 07:51:12;;;;;;;3.88;3.47;;;;;;;28.30;52.99;98176.06;5032509;28;20199;-58
2022/06/30 07:53:38;;;;;;;9.27;3.28;;;;;;;28.43;52.94;98186.59;5032016;28;20181;-58
2022/06/30 07:56:04;;;;;;;5.30;3.67;;;;;;;28.45;52.79;98187.16;5032121;28;20170;-59
2022/06/30 07:58:29;;;;;;;6.85;3.83;;;;;;;28.59;53.34;98186.00;5031935;28;20178;-58
2022/06/30 08:00:55;;;;;;;5.60;3.30;;;;;;;28.60;50.75;98189.44;5032061;28;20209;-58
2022/06/30 08:03:20;;;;;;;3.72;3.40;;;;;;;28.56;50.96;98197.06;5032419;28;20182;-59
2022/06/30 08:05:45;;;;;;;6.88;3.70;;;;;;;28.66;50.81;98186.72;5032316;28;20188;-59
2022/06/30 08:08:11;;;;;;;7.50;3.65;;;;;;;28.69;51.25;98198.78;5030848;28;20178;-59
2022/06/30 08:10:37;;;;;;;7.63;4.05;;;;;;;28.74;51.29;98194.38;5032070;28;20170;-59
2022/06/30 08:13:02;;;;;;;4.80;3.58;;;;;;;28.77;50.07;98191.28;5032049;28;20177;-59
2022/06/30 08:15:27;;;;;;;4.15;3.55;;;;;;;28.74;50.43;98183.72;5031972;28;20177;-59
2022/06/30 08:17:53;;;;;;;4.85;3.03;;;;;;;28.82;50.33;98186.09;5032228;28;20170;-59
2022/06/30 08:20:18;;;;;;;3.88;3.15;;;;;;;28.89;51.16;98186.81;5032516;28;20180;-58
2022/06/30 08:22:44;;;;;;;11.05;3.75;;;;;;;28.95;51.29;98191.25;5032101;28;20549;-59
2022/06/30 08:25:09;;;;;;;5.07;3.30;;;;;;;29.06;47.88;98184.34;5031907;28;20186;-59
2022/06/30 08:27:35;;;;;;;5.43;3.75;;;;;;;28.93;48.90;98189.84;5032073;28;20170;-59
2022/06/30 08:30:00;;;;;;;7.20;3.47;;;;;;;28.98;47.54;98190.81;5031796;28;20252;-59
2022/06/30 08:32:26;;;;;;;9.55;3.25;;;;;;;29.04;48.09;98197.09;5032643;28;20544;-59
2022/06/30 08:34:51;;;;;;;7.28;3.92;;;;;;;29.02;48.06;98193.81;5032420;28;20170;-59
2022/06/30 08:37:17;;;;;;;6.97;3.55;;;;;;;28.95;49.67;98193.94;5034975;28;20174;-58
2022/06/30 08:42:27;;;;;;;3.50;3.17;;;;;;;29.16;48.54;98185.41;5036055;28;20188;-59
2022/06/30 08:47:37;;;;;;;8.60;4.15;;;;;;;29.34;46.24;98184.53;5035983;28;20165;-59
2022/06/30 08:50:08;;;;;;;5.47;3.38;;;;;;;29.34;46.11;98180.03;5035924;28;20181;-59
2022/06/30 08:52:44;;;;;;;5.85;3.97;;;;;;;29.36;45.11;98180.59;5035879;28;20275;-59
2022/06/30 08:55:10;;;;;;;7.78;4.10;;;;;;;29.36;46.02;98182.44;5035744;28;20599;-58
2022/06/30 08:57:37;;;;;;;6.95;3.47;;;;;;;29.29;45.08;98187.06;5035491;28;20174;-59
2022/06/30 09:00:03;;;;;;;6.13;3.83;;;;;;;29.40;44.53;98179.13;5035440;28;20178;-59
2022/06/30 09:02:28;;;;;;;7.22;3.25;;;;;;;29.52;44.36;98184.44;5035206;28;20217;-58
2022/06/30 09:04:54;;;;;;;7.53;3.13;;;;;;;29.67;42.61;98184.84;5035385;28;20184;-59
2022/06/30 09:07:19;;;;;;;6.30;2.88;;;;;;;29.75;43.21;98181.81;5035753;28;20216;-59
2022/06/30 09:09:44;;;;;;;6.35;3.33;;;;;;;29.81;43.72;98181.72;5035253;28;20189;-58
2022/06/30 09:12:20;;;;;;;4.93;3.72;;;;;;;29.89;42.99;98189.38;5035204;28;20200;-58
2022/06/30 09:14:47;;;;;;;5.38;3.58;;;;;;;30.00;43.46;98196.56;5035530;28;20173;-58
2022/06/30 09:17:14;;;;;;;5.63;3.50;;;;;;;30.11;42.32;98198.44;5035095;28;20651;-59
2022/06/30 09:20:04;;;;;;;8.18;3.45;;;;;;;30.19;41.98;98189.28;5035307;28;20174;-58
2022/06/30 09:22:30;;;;;;;7.78;3.22;;;;;;;30.27;42.19;98189.72;5029678;28;20218;-59
2022/06/30 09:25:01;;;;;;;3.70;3.22;;;;;;;30.41;42.08;98193.75;5035238;28;20558;-59
2022/06/30 09:27:29;;;;;;;9.13;3.70;;;;;;;30.49;42.35;98190.69;5034889;28;20662;-59
2022/06/30 09:30:07;;;;;;;6.55;3.55;;;;;;;30.46;41.99;98180.50;5035099;28;20174;-58
2022/06/30 09:32:57;;;;;;;7.45;3.85;;;;;;;30.57;42.27;98190.34;5035111;28;20228;-58
2022/06/30 09:35:30;;;;;;;8.68;3.50;;;;;;;30.68;41.70;98194.88;5034737;28;20205;-59
2022/06/30 09:38:11;;;;;;;7.00;3.50;;;;;;;30.66;40.79;98191.59;5034773;28;20208;-59
2022/06/30 09:43:30;;;;;;;4.60;3.45;;;;;;;30.91;40.74;98200.13;5034960;28;20257;-58
2022/06/30 09:45:56;;;;;;;6.78;3.90;;;;;;;31.03;40.49;98197.41;5035802;28;20590;-58
2022/06/30 09:48:27;;;;;;;5.50;3.65;;;;;;;31.10;40.40;98198.06;5032535;28;20205;-59
2022/06/30 09:50:57;;;;;;;4.00;3.60;;;;;;;31.11;39.74;98194.31;5034556;28;20161;-58
2022/06/30 09:53:22;;;;;;;5.35;3.30;;;;;;;31.06;39.96;98192.38;5034416;28;20228;-59
2022/06/30 09:55:48;;;;;;;4.38;3.67;;;;;;;31.14;39.81;98200.00;5034750;28;20169;-59
2022/06/30 09:58:35;;;;;;;10.75;4.35;;;;;;;31.14;39.12;98191.97;5034678;28;20189;-59
2022/06/30 10:01:02;;;;;;;10.27;4.32;;;;;;;31.11;38.76;98187.13;5034509;28;20213;-59
2022/06/30 10:03:27;;;;;;;4.38;3.33;;;;;;;31.16;39.67;98186.41;5034299;28;20213;-59
2022/06/30 10:06:11;;;;;;;9.23;4.15;;;;;;;31.21;39.22;98179.31;5034430;28;20205;-59
2022/06/30 10:08:36;;;;;;;6.15;4.05;;;;;;;31.27;39.11;98181.03;5034202;28;20177;-59
2022/06/30 10:11:03;;;;;;;9.35;4.22;;;;;;;31.39;39.64;98178.25;5034135;28;20261;-58
2022/06/30 10:13:34;;;;;;;4.45;3.53;;;;;;;31.60;39.92;98178.34;5034709;28;20204;-59
2022/06/30 10:16:03;;;;;;;6.72;3.90;;;;;;;31.70;38.72;98178.50;5034069;28;20623;-59
2022/06/30 10:18:31;;;;;;;4.35;3.40;;;;;;;31.79;38.00;98166.38;5034233;28;20633;-59
2022/06/30 10:20:58;;;;;;;4.13;3.75;;;;;;;31.82;37.37;98175.78;5033929;28;20264;-59
2022/06/30 10:23:24;;;;;;;7.13;3.85;;;;;;;31.92;37.34;98171.38;5033919;28;20217;-59
2022/06/30 10:25:52;;;;;;;6.20;3.45;;;;;;;31.73;35.24;98162.00;5033982;28;20197;-59
2022/06/30 10:28:20;;;;;;;6.93;3.55;;;;;;;31.78;35.50;98170.09;5033896;28;20303;-59
2022/06/30 10:31:06;;;;;;;5.97;2.90;;;;;;;31.91;31.81;98175.13;5033943;28;20619;-59
2022/06/30 10:33:42;;;;;;;5.18;2.33;;;;;;;31.89;31.54;98171.84;5034276;28;20170;-59
2022/06/30 10:36:33;;;;;;;2.88;2.67;;;;;;;31.98;31.61;98165.03;5033720;28;20248;-59
2022/06/30 10:39:18;;;;;;;5.03;3.08;;;;;;;32.23;32.05;98169.94;5023133;28;20198;-59
2022/06/30 10:41:45;;;;;;;6.55;2.90;;;;;;;32.43;32.03;98163.00;5033797;28;20185;-59
2022/06/30 10:44:16;;;;;;;4.72;3.05;;;;;;;32.56;32.00;98159.94;5032244;28;20185;-59
2022/06/30 10:46:44;;;;;;;3.53;2.83;;;;;;;32.75;32.48;98155.06;5033760;28;20162;-59
2022/06/30 10:49:12;;;;;;;5.95;3.13;;;;;;;32.98;32.80;98157.47;5033443;28;20170;-59
2022/06/30 10:51:39;;;;;;;5.85;3.50;;;;;;;33.13;33.21;98153.03;5033389;28;20173;-59
2022/06/30 10:54:06;;;;;;;4.53;3.03;;;;;;;33.46;32.86;98162.75;5032016;28;20178;-59
2022/06/30 10:56:49;;;;;;;6.50;3.47;;;;;;;33.55;34.20;98158.50;5033514;28;20181;-59
2022/06/30 10:59:17;;;;;;;6.20;3.90;;;;;;;33.71;34.03;98157.56;5033419;28;20647;-59
2022/06/30 11:02:07;;;;;;;7.10;3.70;;;;;;;33.88;32.68;98155.56;5032892;28;20220;-59
2022/06/30 11:04:33;;;;;;;3.70;3.40;;;;;;;33.71;32.70;98155.69;5033097;28;20182;-59
2022/06/30 11:07:20;;;;;;;5.63;3.80;;;;;;;33.95;34.23;98161.50;5033033;28;20220;-59
2022/06/30 11:09:49;;;;;;;3.60;3.33;;;;;;;33.77;32.41;98152.00;5032595;28;20256;-59
2022/06/30 11:12:19;;;;;;;7.60;3.35;;;;;;;34.08;33.20;98156.47;5033247;28;20185;-59
2022/06/30 11:14:55;;;;;;;4.78;3.38;;;;;;;34.25;32.80;98151.72;5033193;28;20222;-59
2022/06/30 11:17:23;;;;;;;4.35;3.15;;;;;;;34.38;31.88;98150.47;5033113;28;20260;-59
2022/06/30 11:19:59;;;;;;;4.35;2.80;;;;;;;34.34;31.72;98144.78;5033118;28;20178;-59
2022/06/30 11:22:25;;;;;;;3.60;3.30;;;;;;;34.34;30.08;98144.78;5032985;28;20185;-58
2022/06/30 11:24:51;;;;;;;5.05;2.78;;;;;;;34.57;31.11;98144.34;5032756;28;20193;-59
2022/06/30 11:27:19;;;;;;;3.30;2.92;;;;;;;34.68;31.27;98142.50;5032722;28;20240;-59
2022/06/30 11:29:48;;;;;;;5.88;3.38;;;;;;;34.82;31.65;98141.78;5032886;28;20185;-59
2022/06/30 11:32:14;;;;;;;4.53;3.00;;;;;;;34.96;31.60;98148.25;5032908;28;20196;-59
2022/06/30 11:34:41;;;;;;;5.75;2.88;;;;;;;34.82;31.05;98144.47;5032576;28;20268;-59
2022/06/30 11:37:10;;;;;;;3.72;2.70;;;;;;;34.79;30.33;98142.28;5032478;28;20188;-59
2022/06/30 11:39:36;;;;;;;4.05;2.85;;;;;;;34.82;29.95;98147.16;5032772;28;20211;-58
2022/06/30 11:42:11;;;;;;;3.08;2.88;;;;;;;34.85;29.09;98146.59;5032346;28;20241;-58
2022/06/30 11:44:40;;;;;;;3.30;2.65;;;;;;;34.97;29.55;98141.78;5032756;28;20176;-58
2022/06/30 11:47:16;;;;;;;4.38;2.85;;;;;;;34.92;29.43;98146.34;5032666;28;20181;-59
2022/06/30 11:49:51;;;;;;;3.42;2.42;;;;;;;34.87;29.28;98138.28;5032834;28;20193;-59
2022/06/30 11:52:18;;;;;;;7.72;2.88;;;;;;;34.75;29.96;98130.47;5032662;28;20161;-59
2022/06/30 11:54:53;;;;;;;4.47;2.72;;;;;;;34.67;31.30;98138.22;5032522;28;20732;-59
2022/06/30 11:57:24;;;;;;;4.72;3.17;;;;;;;34.79;31.65;98136.91;5032554;28;20199;-59